Guarinos, Brazil
Current Conditions -  °F | °C
As of 5:00 AM on Friday 19 Dec 2014 (Local Time) from SBAN Reporting Station
Overcast Overcast  
Wind Chill: 64°   Ceiling: 8000
Heat Index: 64°   Visibility: 6mi
Dew Point: 63°   Wind: 5mph
Humidity: 94%   Direction: 100°E
Pressure: 29.97"   Gusts: NA
Location:  14.65°S, 49.73°W
Report Text: SBAN 190700Z 10004KT 9999 SCT003 OVC080 18/17 Q1015
Loading
Personal Weather Stations






























Interactive Weather Map New forecast layout! Learn more

10-Day Weather Forecast

Advertisements
Track Severe Weather on mobile